sensor_id;sensor_type;location;lat;lon;timestamp;P1;durP1;ratioP1;P2;durP2;ratioP2
26946;SDS011;14501;52.282;10.560;2024-03-25T00:01:53;0.10;;;0.10;;
26946;SDS011;14501;52.282;10.560;2024-03-25T00:04:19;0.10;;;0.10;;
26946;SDS011;14501;52.282;10.560;2024-03-25T00:06:47;0.10;;;0.10;;
26946;SDS011;14501;52.282;10.560;2024-03-25T00:09:14;0.10;;;0.10;;
26946;SDS011;14501;52.282;10.560;2024-03-25T00:11:43;0.30;;;0.30;;
26946;SDS011;14501;52.282;10.560;2024-03-25T00:14:09;0.10;;;0.10;;
26946;SDS011;14501;52.282;10.560;2024-03-25T00:16:35;0.10;;;0.10;;
26946;SDS011;14501;52.282;10.560;2024-03-25T00:19:01;0.10;;;0.10;;
26946;SDS011;14501;52.282;10.560;2024-03-25T00:21:26;0.10;;;0.10;;
26946;SDS011;14501;52.282;10.560;2024-03-25T00:23:52;0.10;;;0.10;;
26946;SDS011;14501;52.282;10.560;2024-03-25T00:26:21;0.20;;;0.20;;
26946;SDS011;14501;52.282;10.560;2024-03-25T00:28:47;3.33;;;1.67;;
26946;SDS011;14501;52.282;10.560;2024-03-25T00:31:13;0.10;;;0.10;;
26946;SDS011;14501;52.282;10.560;2024-03-25T00:33:39;0.10;;;0.10;;
26946;SDS011;14501;52.282;10.560;2024-03-25T00:36:05;0.10;;;0.10;;
26946;SDS011;14501;52.282;10.560;2024-03-25T00:38:31;0.10;;;0.10;;
26946;SDS011;14501;52.282;10.560;2024-03-25T00:40:56;0.10;;;0.10;;
26946;SDS011;14501;52.282;10.560;2024-03-25T00:43:22;0.10;;;0.10;;
26946;SDS011;14501;52.282;10.560;2024-03-25T00:45:48;0.10;;;0.10;;
26946;SDS011;14501;52.282;10.560;2024-03-25T00:48:14;0.10;;;0.10;;
26946;SDS011;14501;52.282;10.560;2024-03-25T00:50:39;0.10;;;0.10;;
26946;SDS011;14501;52.282;10.560;2024-03-25T00:53:05;0.10;;;0.10;;
26946;SDS011;14501;52.282;10.560;2024-03-25T00:55:32;0.10;;;0.10;;
26946;SDS011;14501;52.282;10.560;2024-03-25T00:57:58;0.13;;;0.13;;
26946;SDS011;14501;52.282;10.560;2024-03-25T01:00:24;0.10;;;0.10;;
26946;SDS011;14501;52.282;10.560;2024-03-25T01:02:50;0.10;;;0.10;;
26946;SDS011;14501;52.282;10.560;2024-03-25T01:05:15;0.10;;;0.10;;
26946;SDS011;14501;52.282;10.560;2024-03-25T01:07:41;0.10;;;0.10;;
26946;SDS011;14501;52.282;10.560;2024-03-25T01:10:07;0.10;;;0.10;;
26946;SDS011;14501;52.282;10.560;2024-03-25T01:12:32;0.10;;;0.10;;
26946;SDS011;14501;52.282;10.560;2024-03-25T01:14:58;0.10;;;0.10;;
26946;SDS011;14501;52.282;10.560;2024-03-25T01:17:23;1.10;;;1.00;;
26946;SDS011;14501;52.282;10.560;2024-03-25T01:19:49;0.30;;;0.30;;
26946;SDS011;14501;52.282;10.560;2024-03-25T01:22:15;0.10;;;0.10;;
26946;SDS011;14501;52.282;10.560;2024-03-25T01:24:40;0.17;;;0.17;;
26946;SDS011;14501;52.282;10.560;2024-03-25T01:27:06;0.10;;;0.10;;
26946;SDS011;14501;52.282;10.560;2024-03-25T01:29:31;0.20;;;0.20;;
26946;SDS011;14501;52.282;10.560;2024-03-25T01:31:57;0.10;;;0.10;;
26946;SDS011;14501;52.282;10.560;2024-03-25T01:34:24;0.10;;;0.10;;
26946;SDS011;14501;52.282;10.560;2024-03-25T01:36:51;0.30;;;0.30;;
26946;SDS011;14501;52.282;10.560;2024-03-25T01:39:17;0.10;;;0.10;;
26946;SDS011;14501;52.282;10.560;2024-03-25T01:41:43;0.10;;;0.10;;
26946;SDS011;14501;52.282;10.560;2024-03-25T01:44:10;0.10;;;0.10;;
26946;SDS011;14501;52.282;10.560;2024-03-25T01:46:36;0.25;;;0.25;;
26946;SDS011;14501;52.282;10.560;2024-03-25T01:49:02;0.10;;;0.10;;
26946;SDS011;14501;52.282;10.560;2024-03-25T01:51:29;0.10;;;0.10;;
26946;SDS011;14501;52.282;10.560;2024-03-25T01:53:55;0.10;;;0.10;;
26946;SDS011;14501;52.282;10.560;2024-03-25T01:56:22;0.17;;;0.17;;
26946;SDS011;14501;52.282;10.560;2024-03-25T01:58:49;2.45;;;1.30;;
26946;SDS011;14501;52.282;10.560;2024-03-25T02:01:15;0.10;;;0.10;;
26946;SDS011;14501;52.282;10.560;2024-03-25T02:03:42;0.20;;;0.20;;
26946;SDS011;14501;52.282;10.560;2024-03-25T02:06:15;0.10;;;0.10;;
26946;SDS011;14501;52.282;10.560;2024-03-25T02:08:43;0.13;;;0.13;;
26946;SDS011;14501;52.282;10.560;2024-03-25T02:11:09;0.10;;;0.10;;
26946;SDS011;14501;52.282;10.560;2024-03-25T02:13:36;0.10;;;0.10;;
26946;SDS011;14501;52.282;10.560;2024-03-25T02:16:02;0.10;;;0.10;;
26946;SDS011;14501;52.282;10.560;2024-03-25T02:18:30;0.10;;;0.10;;
26946;SDS011;14501;52.282;10.560;2024-03-25T02:20:56;0.10;;;0.10;;
26946;SDS011;14501;52.282;10.560;2024-03-25T02:23:22;0.10;;;0.10;;
26946;SDS011;14501;52.282;10.560;2024-03-25T02:25:51;0.10;;;0.10;;
26946;SDS011;14501;52.282;10.560;2024-03-25T02:28:20;0.15;;;0.15;;
26946;SDS011;14501;52.282;10.560;2024-03-25T02:30:46;0.10;;;0.10;;
26946;SDS011;14501;52.282;10.560;2024-03-25T02:33:12;1.27;;;1.17;;
26946;SDS011;14501;52.282;10.560;2024-03-25T02:35:38;0.10;;;0.10;;
26946;SDS011;14501;52.282;10.560;2024-03-25T02:38:05;0.10;;;0.10;;
26946;SDS011;14501;52.282;10.560;2024-03-25T02:40:32;0.17;;;0.17;;
26946;SDS011;14501;52.282;10.560;2024-03-25T02:42:58;0.10;;;0.10;;
26946;SDS011;14501;52.282;10.560;2024-03-25T02:45:24;0.43;;;0.43;;
26946;SDS011;14501;52.282;10.560;2024-03-25T02:47:50;0.10;;;0.10;;
26946;SDS011;14501;52.282;10.560;2024-03-25T02:50:16;0.10;;;0.10;;
26946;SDS011;14501;52.282;10.560;2024-03-25T02:52:42;4.15;;;2.28;;
26946;SDS011;14501;52.282;10.560;2024-03-25T02:55:08;0.75;;;0.75;;
26946;SDS011;14501;52.282;10.560;2024-03-25T02:57:34;0.10;;;0.10;;
26946;SDS011;14501;52.282;10.560;2024-03-25T02:59:59;0.10;;;0.10;;
26946;SDS011;14501;52.282;10.560;2024-03-25T03:02:25;0.17;;;0.17;;
26946;SDS011;14501;52.282;10.560;2024-03-25T03:04:51;2.28;;;1.60;;
26946;SDS011;14501;52.282;10.560;2024-03-25T03:07:17;0.90;;;0.90;;
26946;SDS011;14501;52.282;10.560;2024-03-25T03:09:42;0.15;;;0.15;;
26946;SDS011;14501;52.282;10.560;2024-03-25T03:12:08;0.10;;;0.10;;
26946;SDS011;14501;52.282;10.560;2024-03-25T03:14:35;18.73;;;1.05;;
26946;SDS011;14501;52.282;10.560;2024-03-25T03:17:01;0.10;;;0.10;;
26946;SDS011;14501;52.282;10.560;2024-03-25T03:19:30;0.10;;;0.10;;
26946;SDS011;14501;52.282;10.560;2024-03-25T03:21:56;0.38;;;0.38;;
26946;SDS011;14501;52.282;10.560;2024-03-25T03:24:22;0.10;;;0.10;;
26946;SDS011;14501;52.282;10.560;2024-03-25T03:26:48;0.10;;;0.10;;
26946;SDS011;14501;52.282;10.560;2024-03-25T03:29:15;0.10;;;0.10;;
26946;SDS011;14501;52.282;10.560;2024-03-25T03:31:40;0.10;;;0.10;;
26946;SDS011;14501;52.282;10.560;2024-03-25T03:34:06;0.10;;;0.10;;
26946;SDS011;14501;52.282;10.560;2024-03-25T03:36:32;0.10;;;0.10;;
26946;SDS011;14501;52.282;10.560;2024-03-25T03:38:57;0.63;;;0.63;;
26946;SDS011;14501;52.282;10.560;2024-03-25T03:41:23;0.10;;;0.10;;
26946;SDS011;14501;52.282;10.560;2024-03-25T03:43:48;0.47;;;0.47;;
26946;SDS011;14501;52.282;10.560;2024-03-25T03:46:14;0.10;;;0.10;;
26946;SDS011;14501;52.282;10.560;2024-03-25T03:48:40;0.65;;;0.65;;
26946;SDS011;14501;52.282;10.560;2024-03-25T03:51:06;0.60;;;0.60;;
26946;SDS011;14501;52.282;10.560;2024-03-25T03:53:35;0.10;;;0.10;;
26946;SDS011;14501;52.282;10.560;2024-03-25T03:56:03;0.10;;;0.10;;
26946;SDS011;14501;52.282;10.560;2024-03-25T03:58:30;0.10;;;0.10;;
26946;SDS011;14501;52.282;10.560;2024-03-25T04:00:56;0.68;;;0.68;;
26946;SDS011;14501;52.282;10.560;2024-03-25T04:03:22;0.10;;;0.10;;
26946;SDS011;14501;52.282;10.560;2024-03-25T04:05:48;1.08;;;0.85;;
26946;SDS011;14501;52.282;10.560;2024-03-25T04:08:13;0.10;;;0.10;;
26946;SDS011;14501;52.282;10.560;2024-03-25T04:10:39;0.20;;;0.20;;
26946;SDS011;14501;52.282;10.560;2024-03-25T04:13:05;0.10;;;0.10;;
26946;SDS011;14501;52.282;10.560;2024-03-25T04:15:33;0.10;;;0.10;;
26946;SDS011;14501;52.282;10.560;2024-03-25T04:18:00;0.10;;;0.10;;
26946;SDS011;14501;52.282;10.560;2024-03-25T04:20:29;0.20;;;0.20;;
26946;SDS011;14501;52.282;10.560;2024-03-25T04:22:55;0.10;;;0.10;;
26946;SDS011;14501;52.282;10.560;2024-03-25T04:25:21;0.45;;;0.45;;
26946;SDS011;14501;52.282;10.560;2024-03-25T04:27:47;0.10;;;0.10;;
26946;SDS011;14501;52.282;10.560;2024-03-25T04:30:13;0.10;;;0.10;;
26946;SDS011;14501;52.282;10.560;2024-03-25T04:32:40;0.10;;;0.10;;
26946;SDS011;14501;52.282;10.560;2024-03-25T04:35:06;0.10;;;0.10;;
26946;SDS011;14501;52.282;10.560;2024-03-25T04:37:33;0.82;;;0.82;;
26946;SDS011;14501;52.282;10.560;2024-03-25T04:39:59;0.10;;;0.10;;
26946;SDS011;14501;52.282;10.560;2024-03-25T04:42:25;0.10;;;0.10;;
26946;SDS011;14501;52.282;10.560;2024-03-25T04:44:51;0.15;;;0.15;;
26946;SDS011;14501;52.282;10.560;2024-03-25T04:47:17;0.10;;;0.10;;
26946;SDS011;14501;52.282;10.560;2024-03-25T04:49:43;0.10;;;0.10;;
26946;SDS011;14501;52.282;10.560;2024-03-25T04:52:09;0.10;;;0.10;;
26946;SDS011;14501;52.282;10.560;2024-03-25T04:54:38;0.10;;;0.10;;
26946;SDS011;14501;52.282;10.560;2024-03-25T04:57:03;0.15;;;0.15;;
26946;SDS011;14501;52.282;10.560;2024-03-25T04:59:31;0.52;;;0.52;;
26946;SDS011;14501;52.282;10.560;2024-03-25T05:01:56;0.10;;;0.10;;
26946;SDS011;14501;52.282;10.560;2024-03-25T05:04:22;0.10;;;0.10;;
26946;SDS011;14501;52.282;10.560;2024-03-25T05:06:49;0.30;;;0.30;;
26946;SDS011;14501;52.282;10.560;2024-03-25T05:09:15;0.10;;;0.10;;
26946;SDS011;14501;52.282;10.560;2024-03-25T05:11:41;0.20;;;0.20;;
26946;SDS011;14501;52.282;10.560;2024-03-25T05:14:07;0.10;;;0.10;;
26946;SDS011;14501;52.282;10.560;2024-03-25T05:16:32;0.10;;;0.10;;
26946;SDS011;14501;52.282;10.560;2024-03-25T05:18:58;2.08;;;1.65;;
26946;SDS011;14501;52.282;10.560;2024-03-25T05:21:24;0.10;;;0.10;;
26946;SDS011;14501;52.282;10.560;2024-03-25T05:23:49;0.10;;;0.10;;
26946;SDS011;14501;52.282;10.560;2024-03-25T05:26:15;0.10;;;0.10;;
26946;SDS011;14501;52.282;10.560;2024-03-25T05:28:40;0.10;;;0.10;;
26946;SDS011;14501;52.282;10.560;2024-03-25T05:31:06;0.10;;;0.10;;
26946;SDS011;14501;52.282;10.560;2024-03-25T05:33:35;0.10;;;0.10;;
26946;SDS011;14501;52.282;10.560;2024-03-25T05:36:02;0.25;;;0.25;;
26946;SDS011;14501;52.282;10.560;2024-03-25T05:38:28;0.10;;;0.10;;
26946;SDS011;14501;52.282;10.560;2024-03-25T05:40:54;0.10;;;0.10;;
26946;SDS011;14501;52.282;10.560;2024-03-25T05:43:20;0.10;;;0.10;;
26946;SDS011;14501;52.282;10.560;2024-03-25T05:45:55;0.68;;;0.68;;
26946;SDS011;14501;52.282;10.560;2024-03-25T05:48:21;0.17;;;0.17;;
26946;SDS011;14501;52.282;10.560;2024-03-25T05:51:02;0.10;;;0.10;;
26946;SDS011;14501;52.282;10.560;2024-03-25T05:53:34;0.10;;;0.10;;
26946;SDS011;14501;52.282;10.560;2024-03-25T05:56:00;0.10;;;0.10;;
26946;SDS011;14501;52.282;10.560;2024-03-25T05:58:26;0.10;;;0.10;;
26946;SDS011;14501;52.282;10.560;2024-03-25T06:00:52;0.10;;;0.10;;
26946;SDS011;14501;52.282;10.560;2024-03-25T06:03:18;0.77;;;0.77;;
26946;SDS011;14501;52.282;10.560;2024-03-25T06:05:43;0.10;;;0.10;;
26946;SDS011;14501;52.282;10.560;2024-03-25T06:08:09;0.10;;;0.10;;
26946;SDS011;14501;52.282;10.560;2024-03-25T06:10:43;0.10;;;0.10;;
26946;SDS011;14501;52.282;10.560;2024-03-25T06:13:09;0.10;;;0.10;;
26946;SDS011;14501;52.282;10.560;2024-03-25T06:15:35;0.10;;;0.10;;
26946;SDS011;14501;52.282;10.560;2024-03-25T06:18:00;0.10;;;0.10;;
26946;SDS011;14501;52.282;10.560;2024-03-25T06:20:26;4.40;;;0.85;;
26946;SDS011;14501;52.282;10.560;2024-03-25T06:22:51;0.10;;;0.10;;
26946;SDS011;14501;52.282;10.560;2024-03-25T06:25:17;0.10;;;0.10;;
26946;SDS011;14501;52.282;10.560;2024-03-25T06:27:43;0.10;;;0.10;;
26946;SDS011;14501;52.282;10.560;2024-03-25T06:30:09;0.10;;;0.10;;
26946;SDS011;14501;52.282;10.560;2024-03-25T06:32:54;0.32;;;0.32;;
26946;SDS011;14501;52.282;10.560;2024-03-25T06:35:38;0.10;;;0.10;;
26946;SDS011;14501;52.282;10.560;2024-03-25T06:38:04;0.10;;;0.10;;
26946;SDS011;14501;52.282;10.560;2024-03-25T06:40:30;0.35;;;0.35;;
26946;SDS011;14501;52.282;10.560;2024-03-25T06:42:56;0.15;;;0.15;;
26946;SDS011;14501;52.282;10.560;2024-03-25T06:45:22;1.58;;;1.48;;
26946;SDS011;14501;52.282;10.560;2024-03-25T06:47:47;0.10;;;0.10;;
26946;SDS011;14501;52.282;10.560;2024-03-25T06:50:13;0.38;;;0.38;;
26946;SDS011;14501;52.282;10.560;2024-03-25T06:52:39;0.82;;;0.82;;
26946;SDS011;14501;52.282;10.560;2024-03-25T06:55:05;0.10;;;0.10;;
26946;SDS011;14501;52.282;10.560;2024-03-25T06:57:30;0.20;;;0.20;;
26946;SDS011;14501;52.282;10.560;2024-03-25T06:59:56;1.45;;;1.20;;
26946;SDS011;14501;52.282;10.560;2024-03-25T07:02:23;0.10;;;0.10;;
26946;SDS011;14501;52.282;10.560;2024-03-25T07:04:48;0.68;;;0.68;;
26946;SDS011;14501;52.282;10.560;2024-03-25T07:07:14;0.10;;;0.10;;
26946;SDS011;14501;52.282;10.560;2024-03-25T07:09:39;0.43;;;0.43;;
26946;SDS011;14501;52.282;10.560;2024-03-25T07:12:05;0.10;;;0.10;;
26946;SDS011;14501;52.282;10.560;2024-03-25T07:14:31;0.10;;;0.10;;
26946;SDS011;14501;52.282;10.560;2024-03-25T07:16:57;0.28;;;0.28;;
26946;SDS011;14501;52.282;10.560;2024-03-25T07:19:23;0.10;;;0.10;;
26946;SDS011;14501;52.282;10.560;2024-03-25T07:21:49;15.68;;;1.00;;
26946;SDS011;14501;52.282;10.560;2024-03-25T07:24:14;0.10;;;0.10;;
26946;SDS011;14501;52.282;10.560;2024-03-25T07:26:40;0.40;;;0.40;;
26946;SDS011;14501;52.282;10.560;2024-03-25T07:29:06;0.13;;;0.13;;
26946;SDS011;14501;52.282;10.560;2024-03-25T07:31:31;0.10;;;0.10;;
26946;SDS011;14501;52.282;10.560;2024-03-25T07:33:57;0.43;;;0.43;;
26946;SDS011;14501;52.282;10.560;2024-03-25T07:36:22;0.20;;;0.20;;
26946;SDS011;14501;52.282;10.560;2024-03-25T07:38:48;0.52;;;0.52;;
26946;SDS011;14501;52.282;10.560;2024-03-25T07:41:13;0.13;;;0.13;;
26946;SDS011;14501;52.282;10.560;2024-03-25T07:43:39;0.10;;;0.10;;
26946;SDS011;14501;52.282;10.560;2024-03-25T07:46:04;0.10;;;0.10;;
26946;SDS011;14501;52.282;10.560;2024-03-25T07:48:30;2.33;;;2.22;;
26946;SDS011;14501;52.282;10.560;2024-03-25T07:50:55;0.20;;;0.20;;
26946;SDS011;14501;52.282;10.560;2024-03-25T07:53:21;2.17;;;1.73;;
26946;SDS011;14501;52.282;10.560;2024-03-25T07:55:47;0.10;;;0.10;;
26946;SDS011;14501;52.282;10.560;2024-03-25T07:58:12;0.10;;;0.10;;
26946;SDS011;14501;52.282;10.560;2024-03-25T08:00:38;0.10;;;0.10;;
26946;SDS011;14501;52.282;10.560;2024-03-25T08:03:04;7.68;;;1.45;;
26946;SDS011;14501;52.282;10.560;2024-03-25T08:05:30;0.15;;;0.15;;
26946;SDS011;14501;52.282;10.560;2024-03-25T08:07:55;0.10;;;0.10;;
26946;SDS011;14501;52.282;10.560;2024-03-25T08:10:21;0.10;;;0.10;;
26946;SDS011;14501;52.282;10.560;2024-03-25T08:12:47;0.10;;;0.10;;
26946;SDS011;14501;52.282;10.560;2024-03-25T08:15:13;0.10;;;0.10;;
26946;SDS011;14501;52.282;10.560;2024-03-25T08:17:39;0.10;;;0.10;;
26946;SDS011;14501;52.282;10.560;2024-03-25T08:20:05;0.10;;;0.10;;
26946;SDS011;14501;52.282;10.560;2024-03-25T08:22:31;0.80;;;0.80;;
26946;SDS011;14501;52.282;10.560;2024-03-25T08:24:56;0.10;;;0.10;;
26946;SDS011;14501;52.282;10.560;2024-03-25T08:27:22;0.43;;;0.43;;
26946;SDS011;14501;52.282;10.560;2024-03-25T08:29:47;0.28;;;0.28;;
26946;SDS011;14501;52.282;10.560;2024-03-25T08:32:16;0.30;;;0.30;;
26946;SDS011;14501;52.282;10.560;2024-03-25T08:34:41;1.55;;;1.40;;
26946;SDS011;14501;52.282;10.560;2024-03-25T08:37:07;0.35;;;0.35;;
26946;SDS011;14501;52.282;10.560;2024-03-25T08:39:32;0.10;;;0.10;;
26946;SDS011;14501;52.282;10.560;2024-03-25T08:41:58;0.75;;;0.63;;
26946;SDS011;14501;52.282;10.560;2024-03-25T08:44:23;0.95;;;0.95;;
26946;SDS011;14501;52.282;10.560;2024-03-25T08:46:49;0.63;;;0.63;;
26946;SDS011;14501;52.282;10.560;2024-03-25T08:49:14;0.32;;;0.32;;
26946;SDS011;14501;52.282;10.560;2024-03-25T08:51:40;0.47;;;0.47;;
26946;SDS011;14501;52.282;10.560;2024-03-25T08:54:05;0.30;;;0.30;;
26946;SDS011;14501;52.282;10.560;2024-03-25T08:56:31;0.10;;;0.10;;
26946;SDS011;14501;52.282;10.560;2024-03-25T08:58:57;0.20;;;0.20;;
26946;SDS011;14501;52.282;10.560;2024-03-25T09:01:22;4.45;;;0.98;;
26946;SDS011;14501;52.282;10.560;2024-03-25T09:03:49;0.25;;;0.25;;
26946;SDS011;14501;52.282;10.560;2024-03-25T09:06:15;4.18;;;1.67;;
26946;SDS011;14501;52.282;10.560;2024-03-25T09:08:41;0.77;;;0.50;;
26946;SDS011;14501;52.282;10.560;2024-03-25T09:11:25;0.10;;;0.10;;
26946;SDS011;14501;52.282;10.560;2024-03-25T09:13:51;0.38;;;0.38;;
26946;SDS011;14501;52.282;10.560;2024-03-25T09:16:18;0.10;;;0.10;;
26946;SDS011;14501;52.282;10.560;2024-03-25T09:18:44;0.17;;;0.17;;
26946;SDS011;14501;52.282;10.560;2024-03-25T09:21:10;0.77;;;0.75;;
26946;SDS011;14501;52.282;10.560;2024-03-25T09:23:36;0.73;;;0.73;;
26946;SDS011;14501;52.282;10.560;2024-03-25T09:26:01;0.45;;;0.45;;
26946;SDS011;14501;52.282;10.560;2024-03-25T09:28:27;0.10;;;0.10;;
26946;SDS011;14501;52.282;10.560;2024-03-25T09:30:52;0.10;;;0.10;;
26946;SDS011;14501;52.282;10.560;2024-03-25T09:33:18;0.55;;;0.55;;
26946;SDS011;14501;52.282;10.560;2024-03-25T09:35:44;0.10;;;0.10;;
26946;SDS011;14501;52.282;10.560;2024-03-25T09:38:10;0.47;;;0.47;;
26946;SDS011;14501;52.282;10.560;2024-03-25T09:40:35;0.10;;;0.10;;
26946;SDS011;14501;52.282;10.560;2024-03-25T09:43:04;0.30;;;0.30;;
26946;SDS011;14501;52.282;10.560;2024-03-25T09:45:49;0.10;;;0.10;;
26946;SDS011;14501;52.282;10.560;2024-03-25T09:48:17;0.70;;;0.70;;
26946;SDS011;14501;52.282;10.560;2024-03-25T09:50:46;0.40;;;0.40;;
26946;SDS011;14501;52.282;10.560;2024-03-25T09:53:13;0.10;;;0.10;;
26946;SDS011;14501;52.282;10.560;2024-03-25T09:55:39;0.20;;;0.20;;
26946;SDS011;14501;52.282;10.560;2024-03-25T09:58:04;0.10;;;0.10;;
26946;SDS011;14501;52.282;10.560;2024-03-25T10:00:30;0.10;;;0.10;;
26946;SDS011;14501;52.282;10.560;2024-03-25T10:02:56;0.10;;;0.10;;
26946;SDS011;14501;52.282;10.560;2024-03-25T10:05:21;0.98;;;0.65;;
26946;SDS011;14501;52.282;10.560;2024-03-25T10:07:47;0.10;;;0.10;;
26946;SDS011;14501;52.282;10.560;2024-03-25T10:10:13;0.10;;;0.10;;
26946;SDS011;14501;52.282;10.560;2024-03-25T10:12:38;0.10;;;0.10;;
26946;SDS011;14501;52.282;10.560;2024-03-25T10:15:06;0.20;;;0.20;;
26946;SDS011;14501;52.282;10.560;2024-03-25T10:17:31;0.10;;;0.10;;
26946;SDS011;14501;52.282;10.560;2024-03-25T10:19:57;0.43;;;0.43;;
26946;SDS011;14501;52.282;10.560;2024-03-25T10:22:23;0.10;;;0.10;;
26946;SDS011;14501;52.282;10.560;2024-03-25T10:24:49;0.65;;;0.65;;
26946;SDS011;14501;52.282;10.560;2024-03-25T10:27:22;0.10;;;0.10;;
26946;SDS011;14501;52.282;10.560;2024-03-25T10:29:52;0.13;;;0.13;;
26946;SDS011;14501;52.282;10.560;2024-03-25T10:32:18;0.10;;;0.10;;
26946;SDS011;14501;52.282;10.560;2024-03-25T10:34:44;0.10;;;0.10;;
26946;SDS011;14501;52.282;10.560;2024-03-25T10:37:10;0.10;;;0.10;;
26946;SDS011;14501;52.282;10.560;2024-03-25T10:39:43;0.40;;;0.40;;
26946;SDS011;14501;52.282;10.560;2024-03-25T10:42:18;0.30;;;0.30;;
26946;SDS011;14501;52.282;10.560;2024-03-25T10:44:44;0.10;;;0.10;;
26946;SDS011;14501;52.282;10.560;2024-03-25T10:47:11;0.10;;;0.10;;
26946;SDS011;14501;52.282;10.560;2024-03-25T10:49:51;0.10;;;0.10;;
26946;SDS011;14501;52.282;10.560;2024-03-25T10:52:24;0.10;;;0.10;;
26946;SDS011;14501;52.282;10.560;2024-03-25T10:54:51;0.32;;;0.32;;
26946;SDS011;14501;52.282;10.560;2024-03-25T10:57:19;0.10;;;0.10;;
26946;SDS011;14501;52.282;10.560;2024-03-25T10:59:45;0.70;;;0.70;;
26946;SDS011;14501;52.282;10.560;2024-03-25T11:02:12;2.90;;;1.85;;
26946;SDS011;14501;52.282;10.560;2024-03-25T11:04:38;0.57;;;0.57;;
26946;SDS011;14501;52.282;10.560;2024-03-25T11:07:09;3.63;;;1.27;;
26946;SDS011;14501;52.282;10.560;2024-03-25T11:09:38;0.10;;;0.10;;
26946;SDS011;14501;52.282;10.560;2024-03-25T11:12:05;5.22;;;3.75;;
26946;SDS011;14501;52.282;10.560;2024-03-25T11:14:31;0.30;;;0.30;;
26946;SDS011;14501;52.282;10.560;2024-03-25T11:16:57;1.17;;;0.80;;
26946;SDS011;14501;52.282;10.560;2024-03-25T11:19:28;0.28;;;0.28;;
26946;SDS011;14501;52.282;10.560;2024-03-25T11:22:06;1.35;;;0.90;;
26946;SDS011;14501;52.282;10.560;2024-03-25T11:24:34;0.70;;;0.70;;
26946;SDS011;14501;52.282;10.560;2024-03-25T11:27:06;0.10;;;0.10;;
26946;SDS011;14501;52.282;10.560;2024-03-25T11:29:32;5.47;;;1.17;;
26946;SDS011;14501;52.282;10.560;2024-03-25T11:31:59;0.13;;;0.13;;
26946;SDS011;14501;52.282;10.560;2024-03-25T11:34:29;0.13;;;0.13;;
26946;SDS011;14501;52.282;10.560;2024-03-25T11:36:55;0.52;;;0.52;;
26946;SDS011;14501;52.282;10.560;2024-03-25T11:39:22;0.30;;;0.30;;
26946;SDS011;14501;52.282;10.560;2024-03-25T11:41:48;0.10;;;0.10;;
26946;SDS011;14501;52.282;10.560;2024-03-25T11:44:14;0.10;;;0.10;;
26946;SDS011;14501;52.282;10.560;2024-03-25T11:46:42;2.00;;;1.30;;
26946;SDS011;14501;52.282;10.560;2024-03-25T11:49:14;0.10;;;0.10;;
26946;SDS011;14501;52.282;10.560;2024-03-25T11:51:43;0.10;;;0.10;;
26946;SDS011;14501;52.282;10.560;2024-03-25T11:54:10;0.10;;;0.10;;
26946;SDS011;14501;52.282;10.560;2024-03-25T11:56:36;38.17;;;30.48;;
26946;SDS011;14501;52.282;10.560;2024-03-25T11:59:06;43.90;;;37.10;;
26946;SDS011;14501;52.282;10.560;2024-03-25T12:01:32;14.05;;;6.50;;
26946;SDS011;14501;52.282;10.560;2024-03-25T12:04:09;19.23;;;5.78;;
26946;SDS011;14501;52.282;10.560;2024-03-25T12:06:35;48.45;;;29.27;;
26946;SDS011;14501;52.282;10.560;2024-03-25T12:09:01;29.85;;;26.50;;
26946;SDS011;14501;52.282;10.560;2024-03-25T12:11:45;16.00;;;9.43;;
26946;SDS011;14501;52.282;10.560;2024-03-25T12:14:11;6.05;;;3.38;;
26946;SDS011;14501;52.282;10.560;2024-03-25T12:16:37;5.95;;;4.95;;
26946;SDS011;14501;52.282;10.560;2024-03-25T12:19:02;7.63;;;4.70;;
26946;SDS011;14501;52.282;10.560;2024-03-25T12:21:28;5.57;;;3.67;;
26946;SDS011;14501;52.282;10.560;2024-03-25T12:23:56;1.67;;;1.58;;
26946;SDS011;14501;52.282;10.560;2024-03-25T12:26:24;0.63;;;0.63;;
26946;SDS011;14501;52.282;10.560;2024-03-25T12:28:51;0.10;;;0.10;;
26946;SDS011;14501;52.282;10.560;2024-03-25T12:31:17;0.15;;;0.15;;
26946;SDS011;14501;52.282;10.560;2024-03-25T12:33:44;0.10;;;0.10;;
26946;SDS011;14501;52.282;10.560;2024-03-25T12:36:12;0.90;;;0.85;;
26946;SDS011;14501;52.282;10.560;2024-03-25T12:38:38;0.10;;;0.10;;
26946;SDS011;14501;52.282;10.560;2024-03-25T12:41:04;0.10;;;0.10;;
26946;SDS011;14501;52.282;10.560;2024-03-25T12:43:41;0.10;;;0.10;;
26946;SDS011;14501;52.282;10.560;2024-03-25T12:46:08;0.10;;;0.10;;
26946;SDS011;14501;52.282;10.560;2024-03-25T12:48:35;0.93;;;0.93;;
26946;SDS011;14501;52.282;10.560;2024-03-25T12:51:04;1.55;;;0.70;;
26946;SDS011;14501;52.282;10.560;2024-03-25T12:53:30;0.10;;;0.10;;
26946;SDS011;14501;52.282;10.560;2024-03-25T12:55:58;0.25;;;0.25;;
26946;SDS011;14501;52.282;10.560;2024-03-25T12:58:24;0.10;;;0.10;;
26946;SDS011;14501;52.282;10.560;2024-03-25T13:00:49;0.10;;;0.10;;
26946;SDS011;14501;52.282;10.560;2024-03-25T13:03:15;0.65;;;0.65;;
26946;SDS011;14501;52.282;10.560;2024-03-25T13:05:43;7.47;;;1.05;;
26946;SDS011;14501;52.282;10.560;2024-03-25T13:08:09;0.10;;;0.10;;
26946;SDS011;14501;52.282;10.560;2024-03-25T13:10:34;0.20;;;0.20;;
26946;SDS011;14501;52.282;10.560;2024-03-25T13:13:01;2.45;;;1.85;;
26946;SDS011;14501;52.282;10.560;2024-03-25T13:15:27;3.50;;;3.25;;
26946;SDS011;14501;52.282;10.560;2024-03-25T13:17:53;2.65;;;2.50;;
26946;SDS011;14501;52.282;10.560;2024-03-25T13:20:19;0.20;;;0.20;;
26946;SDS011;14501;52.282;10.560;2024-03-25T13:22:45;3.22;;;2.28;;
26946;SDS011;14501;52.282;10.560;2024-03-25T13:25:11;0.38;;;0.38;;
26946;SDS011;14501;52.282;10.560;2024-03-25T13:27:37;1.10;;;1.10;;
26946;SDS011;14501;52.282;10.560;2024-03-25T13:30:04;0.10;;;0.10;;
26946;SDS011;14501;52.282;10.560;2024-03-25T13:32:30;1.50;;;1.45;;
26946;SDS011;14501;52.282;10.560;2024-03-25T13:34:55;0.32;;;0.32;;
26946;SDS011;14501;52.282;10.560;2024-03-25T13:37:21;0.25;;;0.25;;
26946;SDS011;14501;52.282;10.560;2024-03-25T13:39:47;0.10;;;0.10;;
26946;SDS011;14501;52.282;10.560;2024-03-25T13:42:14;0.13;;;0.13;;
26946;SDS011;14501;52.282;10.560;2024-03-25T13:44:40;0.10;;;0.10;;
26946;SDS011;14501;52.282;10.560;2024-03-25T13:47:06;0.30;;;0.30;;
26946;SDS011;14501;52.282;10.560;2024-03-25T13:49:33;0.10;;;0.10;;
26946;SDS011;14501;52.282;10.560;2024-03-25T13:51:59;0.32;;;0.32;;
26946;SDS011;14501;52.282;10.560;2024-03-25T13:54:26;0.30;;;0.30;;
26946;SDS011;14501;52.282;10.560;2024-03-25T13:56:52;0.13;;;0.13;;
26946;SDS011;14501;52.282;10.560;2024-03-25T13:59:17;0.10;;;0.10;;
26946;SDS011;14501;52.282;10.560;2024-03-25T14:01:43;0.65;;;0.65;;
26946;SDS011;14501;52.282;10.560;2024-03-25T14:04:09;1.00;;;1.00;;
26946;SDS011;14501;52.282;10.560;2024-03-25T14:06:35;1.35;;;1.35;;
26946;SDS011;14501;52.282;10.560;2024-03-25T14:09:01;0.10;;;0.10;;
26946;SDS011;14501;52.282;10.560;2024-03-25T14:11:30;0.10;;;0.10;;
26946;SDS011;14501;52.282;10.560;2024-03-25T14:13:56;0.10;;;0.10;;
26946;SDS011;14501;52.282;10.560;2024-03-25T14:16:23;0.00;;;0.00;;
26946;SDS011;14501;52.282;10.560;2024-03-25T14:18:48;0.10;;;0.10;;
26946;SDS011;14501;52.282;10.560;2024-03-25T14:21:14;0.43;;;0.43;;
26946;SDS011;14501;52.282;10.560;2024-03-25T14:23:40;0.68;;;0.68;;
26946;SDS011;14501;52.282;10.560;2024-03-25T14:26:10;2.22;;;2.08;;
26946;SDS011;14501;52.282;10.560;2024-03-25T14:28:37;0.28;;;0.28;;
26946;SDS011;14501;52.282;10.560;2024-03-25T14:31:03;0.10;;;0.10;;